Decoded Metar for KMWL (MINERAL WELLS in TX, USA) (IATA:MWL) | Meteo·Mobile Aviation Weather
aviador You're here:

KMWL Decoded Metar

MINERAL WELLS in TX, USA
Report Time2019-07-16 10:53:00
UTC Time2019-07-16 11:10:14
Flight Rules vfr VFR
Wind140° at 07 kt
W.Decomp.*RWY 13: 7.0 kt HW 0.5 kt RCW
RWY 17: 5.7 kt HW 4.1 kt LCW
Visibility9999 m
Phenomena:N/A
Clouds:N/A
Expected CloudBase > 800 ft AGL from Temp-Dew spread
CeilingNone
Temp24°C (ISA +11)
Dew Point22°C (89% RH)
QNH1013 hPa
Density Alt2,543 ft
Elevation932 ft
Report Wrong Elevation
Raw Report
KMWL 161053Z AUTO 14007KT 10SM CLR 24/22 A2992 RMK AO2 SLP115
T02390222=

Extra information for KMWL:More info

Metar Taf Metar & Taf Last 4 Metars F.Rules Stats Wind Profile Meteogram Temp Stats Airport Information Weather charts Add Link Nearby VenuesMetar ALERT Operation Metar Decoded Social comments

AIRNAV info for KMWL